createdAt,value
2019-04-25T00:02:34.566Z,1.17
2019-04-25T00:05:04.706Z,1.30
2019-04-25T00:07:33.805Z,1.30
2019-04-25T00:10:03.044Z,1.37
2019-04-25T00:12:32.515Z,1.40
2019-04-25T00:15:01.823Z,1.20
2019-04-25T00:17:32.548Z,1.10
2019-04-25T00:20:01.866Z,1.93
2019-04-25T00:22:51.545Z,1.53
2019-04-25T00:25:52.788Z,1.50
2019-04-25T00:28:22.160Z,1.00
2019-04-25T00:30:52.263Z,1.20
2019-04-25T00:33:22.187Z,1.10
2019-04-25T00:35:51.759Z,1.53
2019-04-25T00:38:22.216Z,1.90
2019-04-25T00:40:52.449Z,2.17
2019-04-25T00:43:22.519Z,1.10
2019-04-25T00:45:52.654Z,1.30
2019-04-25T00:48:22.323Z,1.63
2019-04-25T00:50:52.111Z,1.60
2019-04-25T00:53:22.216Z,1.60
2019-04-25T00:55:52.503Z,1.50
2019-04-25T00:58:33.179Z,1.70
2019-04-25T01:01:21.796Z,1.70
2019-04-25T01:03:53.226Z,1.40
2019-04-25T01:06:22.047Z,1.00
2019-04-25T01:08:51.809Z,0.97
2019-04-25T01:11:22.086Z,1.00
2019-04-25T01:13:52.513Z,1.10
2019-04-25T01:16:22.240Z,0.80
2019-04-25T01:18:51.639Z,1.13
2019-04-25T01:21:20.654Z,1.07
2019-04-25T01:23:49.806Z,2.23
2019-04-25T01:26:18.938Z,0.83
2019-04-25T01:28:48.144Z,1.07
2019-04-25T01:31:20.060Z,1.00
2019-04-25T01:33:49.284Z,1.53
2019-04-25T01:36:34.606Z,0.80
2019-04-25T01:39:14.420Z,1.00
2019-04-25T01:42:05.703Z,0.70
2019-04-25T01:44:38.703Z,1.20
2019-04-25T01:47:08.323Z,0.90
2019-04-25T01:49:37.399Z,0.90
2019-04-25T01:52:06.589Z,1.07
2019-04-25T01:54:35.666Z,1.40
2019-04-25T01:57:06.076Z,1.00
2019-04-25T01:59:35.281Z,1.20
2019-04-25T02:02:06.776Z,1.20
2019-04-25T02:04:36.059Z,0.70
2019-04-25T02:07:06.261Z,0.90
2019-04-25T02:09:35.464Z,1.30
2019-04-25T02:12:16.160Z,0.80
2019-04-25T02:14:45.338Z,1.00
2019-04-25T02:17:15.078Z,3.17
2019-04-25T02:19:44.288Z,3.50
2019-04-25T02:22:14.543Z,1.80
2019-04-25T02:24:43.884Z,2.07
2019-04-25T02:27:14.458Z,1.27
2019-04-25T02:29:44.787Z,1.80
2019-04-25T02:32:14.608Z,1.73
2019-04-25T02:34:45.540Z,1.63
2019-04-25T02:37:14.796Z,1.80
2019-04-25T02:39:44.742Z,1.43
2019-04-25T02:42:16.720Z,1.30
2019-04-25T02:44:50.452Z,1.13
2019-04-25T02:47:29.868Z,1.53
2019-04-25T02:50:34.334Z,1.10
2019-04-25T02:53:34.472Z,1.40
2019-04-25T02:56:05.042Z,1.70
2019-04-25T02:58:34.319Z,2.70
2019-04-25T03:01:16.207Z,1.50
2019-04-25T03:03:35.891Z,1.50
2019-04-25T03:06:07.591Z,1.10
2019-04-25T03:08:36.136Z,1.30
2019-04-25T03:11:07.202Z,1.70
2019-04-25T03:13:36.305Z,1.50
2019-04-25T03:16:08.872Z,1.40
2019-04-25T03:18:44.279Z,1.73
2019-04-25T03:21:24.838Z,1.47
2019-04-25T03:23:54.940Z,1.13
2019-04-25T03:26:23.972Z,1.37
2019-04-25T03:28:53.764Z,1.57
2019-04-25T03:31:44.748Z,1.43
2019-04-25T03:34:19.114Z,1.53
2019-04-25T03:36:44.972Z,1.30
2019-04-25T03:39:16.308Z,2.47
2019-04-25T03:41:45.566Z,1.60
2019-04-25T03:44:14.976Z,1.77
2019-04-25T03:46:44.288Z,2.37
2019-04-25T03:49:13.919Z,1.50
2019-04-25T03:51:43.871Z,1.80
2019-04-25T03:54:14.246Z,1.63
2019-04-25T03:56:53.312Z,1.97
2019-04-25T03:59:16.030Z,1.40
2019-04-25T04:01:45.223Z,1.67
2019-04-25T04:04:16.222Z,1.47
2019-04-25T04:06:45.131Z,1.27
2019-04-25T04:09:15.150Z,2.27
2019-04-25T04:11:44.386Z,1.13
2019-04-25T04:14:15.391Z,1.43
2019-04-25T04:17:05.078Z,1.83
2019-04-25T04:19:39.900Z,1.30
2019-04-25T04:22:16.795Z,1.90
2019-04-25T04:24:49.708Z,2.70
2019-04-25T04:27:18.981Z,1.93
2019-04-25T04:29:48.402Z,1.80
2019-04-25T04:32:17.769Z,1.80
2019-04-25T04:34:46.888Z,2.20
2019-04-25T04:37:16.338Z,2.40
2019-04-25T04:39:45.494Z,1.50
2019-04-25T04:42:14.932Z,1.63
2019-04-25T04:44:44.855Z,1.27
2019-04-25T04:47:15.374Z,1.43
2019-04-25T04:49:44.710Z,1.80
2019-04-25T04:52:14.714Z,1.43
2019-04-25T04:54:44.638Z,1.67
2019-04-25T04:57:23.134Z,1.83
2019-04-25T04:59:44.607Z,1.70
2019-04-25T05:02:23.545Z,2.30
2019-04-25T05:05:14.255Z,2.47
2019-04-25T05:07:53.813Z,1.80
2019-04-25T05:10:23.670Z,2.00
2019-04-25T05:12:53.678Z,3.03
2019-04-25T05:15:24.601Z,2.70
2019-04-25T05:17:54.168Z,1.83
2019-04-25T05:20:24.238Z,2.50
2019-04-25T05:22:55.050Z,3.50
2019-04-25T05:25:24.796Z,3.53
2019-04-25T05:28:00.768Z,8.07
2019-04-25T05:30:34.108Z,10.30
2019-04-25T05:33:03.954Z,6.10
2019-04-25T05:35:33.351Z,3.47
2019-04-25T05:38:03.436Z,2.30
2019-04-25T05:40:34.303Z,4.60
2019-04-25T05:43:09.917Z,3.87
2019-04-25T05:45:39.161Z,2.20
2019-04-25T05:48:08.330Z,3.40
2019-04-25T05:50:37.495Z,3.70
2019-04-25T05:53:06.638Z,5.13
2019-04-25T05:55:35.759Z,2.50
2019-04-25T05:58:04.930Z,1.77
2019-04-25T06:00:34.314Z,1.97
2019-04-25T06:03:03.848Z,1.57
2019-04-25T06:05:33.589Z,1.10
2019-04-25T06:08:04.368Z,1.20
2019-04-25T06:10:45.221Z,1.20
2019-04-25T06:13:39.550Z,1.60
2019-04-25T06:16:14.136Z,1.20
2019-04-25T06:18:49.363Z,0.90
2019-04-25T06:21:19.283Z,2.20
2019-04-25T06:24:08.222Z,1.50
2019-04-25T06:26:43.900Z,0.87
2019-04-25T06:29:14.071Z,1.13
2019-04-25T06:31:43.890Z,0.90
2019-04-25T06:34:14.069Z,0.90
2019-04-25T06:36:44.072Z,0.70
2019-04-25T06:39:14.200Z,1.20
2019-04-25T06:41:44.195Z,1.40
2019-04-25T06:44:30.684Z,1.10
2019-04-25T06:47:27.965Z,1.03
2019-04-25T06:49:57.431Z,1.20
2019-04-25T06:52:30.046Z,0.80
2019-04-25T06:54:57.400Z,0.77
2019-04-25T06:57:27.022Z,0.90
2019-04-25T06:59:57.315Z,1.13
2019-04-25T07:02:27.313Z,1.00
2019-04-25T07:04:56.728Z,0.80
2019-04-25T07:07:27.004Z,0.90
2019-04-25T07:09:56.966Z,1.40
2019-04-25T07:12:28.948Z,1.60
2019-04-25T07:14:57.088Z,1.00
2019-04-25T07:17:26.220Z,1.13
2019-04-25T07:19:55.447Z,1.00
2019-04-25T07:22:26.047Z,1.40
2019-04-25T07:24:55.977Z,0.87
2019-04-25T07:27:43.177Z,1.10
2019-04-25T07:30:50.058Z,1.07
2019-04-25T07:33:17.858Z,1.00
2019-04-25T07:35:47.336Z,1.20
2019-04-25T07:38:16.829Z,1.03
2019-04-25T07:40:46.452Z,1.20
2019-04-25T07:43:15.650Z,1.00
2019-04-25T07:45:44.783Z,0.93
2019-04-25T07:48:14.042Z,0.90
2019-04-25T07:50:43.819Z,1.10
2019-04-25T07:53:14.246Z,1.00
2019-04-25T07:55:43.823Z,0.90
2019-04-25T07:58:14.337Z,2.30
2019-04-25T08:00:44.011Z,1.00
2019-04-25T08:03:13.788Z,1.23
2019-04-25T08:05:44.257Z,0.70
2019-04-25T08:08:13.622Z,0.70
2019-04-25T08:11:04.955Z,0.80
2019-04-25T08:13:46.395Z,1.30
2019-04-25T08:16:17.026Z,1.60
2019-04-25T08:18:46.759Z,0.73
2019-04-25T08:21:15.929Z,1.07
2019-04-25T08:23:45.206Z,0.90
2019-04-25T08:26:14.452Z,1.47
2019-04-25T08:28:54.948Z,0.80
2019-04-25T08:31:15.012Z,1.33
2019-04-25T08:33:46.644Z,1.00
2019-04-25T08:36:15.087Z,0.80
2019-04-25T08:38:44.849Z,0.90
2019-04-25T08:41:14.152Z,0.70
2019-04-25T08:43:45.281Z,0.83
2019-04-25T08:46:14.356Z,0.73
2019-04-25T08:49:08.587Z,1.17
2019-04-25T08:51:40.119Z,0.80
2019-04-25T08:54:16.717Z,0.80
2019-04-25T08:56:45.937Z,0.77
2019-04-25T08:59:40.068Z,0.80
2019-04-25T09:02:10.420Z,0.73
2019-04-25T09:04:44.864Z,0.90
2019-04-25T09:07:14.029Z,1.03
2019-04-25T09:09:43.964Z,0.80
2019-04-25T09:12:14.118Z,1.07
2019-04-25T09:14:46.286Z,1.00
2019-04-25T09:17:14.325Z,1.00
2019-04-25T09:19:44.457Z,0.80
2019-04-25T09:22:14.447Z,1.13
2019-04-25T09:24:44.382Z,0.70
2019-04-25T09:27:15.944Z,1.10
2019-04-25T09:29:46.248Z,1.00
2019-04-25T09:32:17.172Z,0.80
2019-04-25T09:34:46.399Z,0.67
2019-04-25T09:37:15.575Z,0.90
2019-04-25T09:40:04.212Z,0.80
2019-04-25T09:42:34.680Z,1.13
2019-04-25T09:45:18.482Z,0.77
2019-04-25T09:47:48.459Z,1.10
2019-04-25T09:50:28.979Z,0.80
2019-04-25T09:52:58.106Z,0.80
2019-04-25T09:55:34.060Z,0.70
2019-04-25T09:58:06.960Z,1.20
2019-04-25T10:00:38.425Z,1.17
2019-04-25T10:03:07.658Z,1.20
2019-04-25T10:05:37.148Z,1.13
2019-04-25T10:08:06.400Z,1.20
2019-04-25T10:10:35.972Z,0.80
2019-04-25T10:13:06.542Z,0.80
2019-04-25T10:16:04.710Z,1.30
2019-04-25T10:18:34.702Z,1.10
2019-04-25T10:21:05.535Z,0.80
2019-04-25T10:23:34.862Z,1.03
2019-04-25T10:26:04.825Z,1.20
2019-04-25T10:28:34.337Z,0.93
2019-04-25T10:31:03.739Z,0.73
2019-04-25T10:33:32.849Z,1.00
2019-04-25T10:36:02.032Z,0.73
2019-04-25T10:38:33.605Z,0.80
2019-04-25T10:41:04.212Z,0.90
2019-04-25T10:43:34.254Z,0.70
2019-04-25T10:46:05.213Z,0.83
2019-04-25T10:48:35.502Z,0.70
2019-04-25T10:51:04.713Z,0.97
2019-04-25T10:53:34.037Z,0.80
2019-04-25T10:56:03.788Z,0.90
2019-04-25T10:58:35.323Z,0.93
2019-04-25T11:01:05.600Z,0.70
2019-04-25T11:03:55.624Z,0.93
2019-04-25T11:06:27.913Z,0.83
2019-04-25T11:08:57.087Z,0.70
2019-04-25T11:11:26.616Z,0.70
2019-04-25T11:13:58.675Z,0.83
2019-04-25T11:16:28.007Z,0.90
2019-04-25T11:18:57.225Z,0.90
2019-04-25T11:21:26.380Z,0.77
2019-04-25T11:23:55.619Z,0.60
2019-04-25T11:26:25.285Z,0.80
2019-04-25T11:28:54.545Z,0.70
2019-04-25T11:31:33.549Z,0.80
2019-04-25T11:34:03.573Z,0.80
2019-04-25T11:36:34.066Z,0.80
2019-04-25T11:39:25.188Z,0.90
2019-04-25T11:41:55.538Z,0.90
2019-04-25T11:44:24.797Z,0.70
2019-04-25T11:46:53.926Z,1.10
2019-04-25T11:49:23.880Z,0.90
2019-04-25T11:51:53.098Z,0.80
2019-04-25T11:54:22.284Z,1.03
2019-04-25T11:56:51.458Z,0.80
2019-04-25T11:59:20.716Z,0.93
2019-04-25T12:01:49.985Z,0.80
2019-04-25T12:04:19.200Z,1.10
2019-04-25T12:06:48.398Z,1.13
2019-04-25T12:09:18.657Z,0.80
2019-04-25T12:11:48.536Z,0.80
2019-04-25T12:14:17.926Z,1.00
2019-04-25T12:16:49.078Z,0.80
2019-04-25T12:19:18.683Z,1.00
2019-04-25T12:21:48.177Z,1.03
2019-04-25T12:24:17.396Z,0.87
2019-04-25T12:26:47.727Z,1.43
2019-04-25T12:29:17.269Z,0.80
2019-04-25T12:31:46.816Z,0.97
2019-04-25T12:34:16.998Z,0.90
2019-04-25T12:36:46.115Z,0.93
2019-04-25T12:39:15.614Z,0.80
2019-04-25T12:41:46.776Z,0.70
2019-04-25T12:44:46.222Z,0.97
2019-04-25T12:47:18.981Z,1.03
2019-04-25T12:49:48.684Z,0.90
2019-04-25T12:52:18.933Z,1.10
2019-04-25T12:54:49.127Z,0.97
2019-04-25T12:57:18.983Z,0.90
2019-04-25T12:59:49.203Z,1.00
2019-04-25T13:02:18.408Z,1.00
2019-04-25T13:04:47.840Z,0.80
2019-04-25T13:07:16.988Z,0.97
2019-04-25T13:09:47.064Z,0.60
2019-04-25T13:12:17.063Z,0.73
2019-04-25T13:14:46.211Z,0.63
2019-04-25T13:17:16.287Z,0.93
2019-04-25T13:19:45.487Z,0.80
2019-04-25T13:22:14.781Z,1.07
2019-04-25T13:24:43.912Z,1.00
2019-04-25T13:27:23.543Z,0.80
2019-04-25T13:30:14.720Z,0.90
2019-04-25T13:33:15.631Z,0.70
2019-04-25T13:36:06.781Z,0.70
2019-04-25T13:38:35.988Z,0.87
2019-04-25T13:41:05.195Z,0.80
2019-04-25T13:43:34.598Z,1.13
2019-04-25T13:46:03.796Z,0.80
2019-04-25T13:48:34.381Z,0.90
2019-04-25T13:51:04.150Z,1.23
2019-04-25T13:53:34.711Z,1.40
2019-04-25T13:56:04.878Z,1.23
2019-04-25T13:58:34.331Z,0.80
2019-04-25T14:01:12.877Z,0.93
2019-04-25T14:03:35.676Z,1.00
2019-04-25T14:06:04.920Z,1.00
2019-04-25T14:08:34.014Z,0.80
2019-04-25T14:11:05.018Z,1.00
2019-04-25T14:13:33.990Z,0.80
2019-04-25T14:16:28.447Z,0.70
2019-04-25T14:19:19.467Z,0.90
2019-04-25T14:21:49.089Z,0.80
2019-04-25T14:24:20.730Z,0.90
2019-04-25T14:26:49.282Z,0.90
2019-04-25T14:29:18.509Z,0.83
2019-04-25T14:31:48.570Z,0.90
2019-04-25T14:34:17.779Z,0.90
2019-04-25T14:36:47.299Z,0.80
2019-04-25T14:39:17.148Z,0.70
2019-04-25T14:41:46.328Z,0.80
2019-04-25T14:44:15.438Z,1.10
2019-04-25T14:46:44.650Z,0.83
2019-04-25T14:49:14.024Z,0.73
2019-04-25T14:51:43.348Z,0.80
2019-04-25T14:54:22.938Z,0.90
2019-04-25T14:57:17.337Z,0.87
2019-04-25T14:59:46.528Z,0.80
2019-04-25T15:02:18.796Z,0.70
2019-04-25T15:04:47.886Z,1.20
2019-04-25T15:07:17.079Z,1.27
2019-04-25T15:09:46.370Z,0.97
2019-04-25T15:12:16.027Z,0.90
2019-04-25T15:14:45.241Z,0.73
2019-04-25T15:17:14.435Z,0.70
2019-04-25T15:19:43.567Z,1.00
2019-04-25T15:22:12.854Z,0.90
2019-04-25T15:24:41.955Z,1.60
2019-04-25T15:27:11.022Z,0.70
2019-04-25T15:29:42.446Z,0.90
2019-04-25T15:32:14.527Z,0.83
2019-04-25T15:34:49.845Z,1.03
2019-04-25T15:37:36.768Z,0.87
2019-04-25T15:40:15.755Z,1.33
2019-04-25T15:43:10.211Z,0.80
2019-04-25T15:45:54.187Z,0.63
2019-04-25T15:48:24.197Z,0.80
2019-04-25T15:50:55.000Z,0.80
2019-04-25T15:53:24.170Z,0.97
2019-04-25T15:55:53.749Z,0.93
2019-04-25T15:58:23.799Z,0.70
2019-04-25T16:00:53.471Z,0.80
2019-04-25T16:03:22.570Z,0.73
2019-04-25T16:05:51.622Z,1.33
2019-04-25T16:08:20.836Z,0.70
2019-04-25T16:10:50.099Z,1.00
2019-04-25T16:13:19.535Z,0.80
2019-04-25T16:15:48.790Z,1.77
2019-04-25T16:18:22.021Z,0.73
2019-04-25T16:20:51.232Z,0.70
2019-04-25T16:23:26.493Z,1.17
2019-04-25T16:25:55.752Z,1.07
2019-04-25T16:28:26.545Z,1.77
2019-04-25T16:30:56.720Z,1.23
2019-04-25T16:33:26.207Z,0.80
2019-04-25T16:35:55.630Z,1.00
2019-04-25T16:38:25.147Z,1.50
2019-04-25T16:40:54.362Z,0.70
2019-04-25T16:43:26.756Z,0.80
2019-04-25T16:45:55.932Z,1.00
2019-04-25T16:48:25.762Z,1.20
2019-04-25T16:50:54.834Z,1.57
2019-04-25T16:53:23.998Z,0.93
2019-04-25T16:55:53.287Z,1.30
2019-04-25T16:58:23.398Z,1.30
2019-04-25T17:00:59.457Z,1.37
2019-04-25T17:03:31.229Z,1.07
2019-04-25T17:05:59.696Z,1.17
2019-04-25T17:08:29.844Z,1.10
2019-04-25T17:11:02.003Z,1.17
2019-04-25T17:13:33.798Z,0.90
2019-04-25T17:16:28.325Z,1.20
2019-04-25T17:19:21.845Z,1.17
2019-04-25T17:21:51.338Z,1.10
2019-04-25T17:24:20.519Z,0.93
2019-04-25T17:26:49.765Z,2.63
2019-04-25T17:29:20.366Z,1.20
2019-04-25T17:32:02.225Z,1.10
2019-04-25T17:34:49.788Z,1.07
2019-04-25T17:37:26.280Z,1.00
2019-04-25T17:39:58.523Z,1.27
2019-04-25T17:42:27.718Z,0.90
2019-04-25T17:44:57.072Z,1.03
2019-04-25T17:47:26.589Z,1.07
2019-04-25T17:49:55.716Z,0.90
2019-04-25T17:52:25.582Z,1.03
2019-04-25T17:54:54.821Z,0.80
2019-04-25T17:57:23.999Z,0.80
2019-04-25T17:59:53.109Z,0.83
2019-04-25T18:02:22.347Z,0.90
2019-04-25T18:04:51.530Z,1.30
2019-04-25T18:07:20.779Z,1.57
2019-04-25T18:09:49.959Z,1.20
2019-04-25T18:12:19.099Z,1.10
2019-04-25T18:14:48.403Z,1.03
2019-04-25T18:17:17.791Z,1.00
2019-04-25T18:19:51.770Z,0.90
2019-04-25T18:22:58.228Z,1.40
2019-04-25T18:25:52.387Z,0.97
2019-04-25T18:28:43.882Z,1.13
2019-04-25T18:31:13.263Z,1.00
2019-04-25T18:33:42.723Z,1.00
2019-04-25T18:36:31.150Z,0.80
2019-04-25T18:39:19.034Z,1.43
2019-04-25T18:41:53.748Z,1.00
2019-04-25T18:44:23.022Z,1.57
2019-04-25T18:46:52.203Z,1.10
2019-04-25T18:49:21.379Z,1.10
2019-04-25T18:51:57.522Z,1.00
2019-04-25T18:54:47.758Z,0.83
2019-04-25T18:57:28.584Z,1.10
2019-04-25T19:00:05.536Z,1.30
2019-04-25T19:03:02.293Z,0.93
2019-04-25T19:05:47.544Z,1.00
2019-04-25T19:08:16.691Z,1.30
2019-04-25T19:10:45.845Z,1.23
2019-04-25T19:13:15.083Z,1.10
2019-04-25T19:15:45.126Z,1.50
2019-04-25T19:18:14.466Z,1.53
2019-04-25T19:20:43.950Z,1.40
2019-04-25T19:23:13.362Z,1.60
2019-04-25T19:25:43.618Z,1.23
2019-04-25T19:28:13.411Z,1.60
2019-04-25T19:30:43.683Z,1.87
2019-04-25T19:33:12.961Z,1.50
2019-04-25T19:35:43.540Z,1.50
2019-04-25T19:38:13.212Z,1.50
2019-04-25T19:41:19.867Z,1.80
2019-04-25T19:44:08.096Z,1.60
2019-04-25T19:46:42.956Z,1.33
2019-04-25T19:49:12.171Z,1.53
2019-04-25T19:51:41.788Z,1.77
2019-04-25T19:54:10.904Z,1.47
2019-04-25T19:56:41.235Z,1.93
2019-04-25T19:59:11.191Z,1.50
2019-04-25T20:01:40.259Z,1.90
2019-04-25T20:04:19.904Z,2.23
2019-04-25T20:07:06.946Z,1.70
2019-04-25T20:09:58.325Z,1.67
2019-04-25T20:12:31.259Z,1.57
2019-04-25T20:15:00.624Z,1.50
2019-04-25T20:17:29.920Z,1.90
2019-04-25T20:20:01.466Z,1.90
2019-04-25T20:22:31.690Z,1.50
2019-04-25T20:25:01.251Z,2.00
2019-04-25T20:27:31.519Z,2.13
2019-04-25T20:30:01.617Z,2.10
2019-04-25T20:32:31.201Z,1.67
2019-04-25T20:35:01.521Z,1.63
2019-04-25T20:37:31.324Z,2.50
2019-04-25T20:40:00.852Z,1.83
2019-04-25T20:42:32.096Z,1.70
2019-04-25T20:45:01.766Z,2.20
2019-04-25T20:47:30.936Z,1.80
2019-04-25T20:50:00.080Z,2.43
2019-04-25T20:52:29.555Z,2.30
2019-04-25T20:54:59.118Z,2.80
2019-04-25T20:57:29.280Z,1.87
2019-04-25T21:00:01.053Z,2.10
2019-04-25T21:02:30.217Z,2.13
2019-04-25T21:05:01.036Z,2.20
2019-04-25T21:07:30.284Z,2.47
2019-04-25T21:09:59.407Z,1.90
2019-04-25T21:12:28.485Z,2.13
2019-04-25T21:15:07.271Z,2.27
2019-04-25T21:18:07.955Z,2.33
2019-04-25T21:20:37.075Z,2.60
2019-04-25T21:23:06.213Z,2.53
2019-04-25T21:25:35.309Z,2.20
2019-04-25T21:28:04.439Z,2.67
2019-04-25T21:30:33.519Z,2.40
2019-04-25T21:33:02.608Z,3.27
2019-04-25T21:35:32.003Z,3.70
2019-04-25T21:38:01.681Z,2.80
2019-04-25T21:40:45.898Z,2.47
2019-04-25T21:43:24.463Z,2.50
2019-04-25T21:45:54.283Z,2.23
2019-04-25T21:48:23.743Z,2.23
2019-04-25T21:50:53.651Z,2.57
2019-04-25T21:53:23.140Z,2.20
2019-04-25T21:55:53.237Z,2.30
2019-04-25T21:58:23.269Z,2.30
2019-04-25T22:01:02.453Z,2.97
2019-04-25T22:03:31.513Z,2.90
2019-04-25T22:06:00.858Z,3.13
2019-04-25T22:08:30.462Z,3.23
2019-04-25T22:11:01.231Z,3.00
2019-04-25T22:13:30.500Z,3.03
2019-04-25T22:15:59.979Z,3.77
2019-04-25T22:18:29.392Z,2.80
2019-04-25T22:20:58.770Z,3.30
2019-04-25T22:23:27.972Z,3.10
2019-04-25T22:25:58.803Z,3.33
2019-04-25T22:28:28.966Z,3.30
2019-04-25T22:31:01.299Z,2.80
2019-04-25T22:33:41.697Z,3.30
2019-04-25T22:36:14.307Z,3.43
2019-04-25T22:38:43.496Z,3.37
2019-04-25T22:41:12.963Z,3.20
2019-04-25T22:43:46.730Z,4.07
2019-04-25T22:46:25.366Z,3.37
2019-04-25T22:48:49.743Z,3.50
2019-04-25T22:51:19.197Z,3.17
2019-04-25T22:53:48.616Z,3.60
2019-04-25T22:56:17.699Z,4.40
2019-04-25T22:58:47.108Z,4.40
2019-04-25T23:01:26.505Z,4.93
2019-04-25T23:03:57.343Z,4.40
2019-04-25T23:06:26.571Z,3.80
2019-04-25T23:08:55.752Z,4.50
2019-04-25T23:11:24.866Z,4.70
2019-04-25T23:13:55.357Z,5.13
2019-04-25T23:16:24.679Z,6.17
2019-04-25T23:18:53.783Z,4.70
2019-04-25T23:21:22.948Z,5.50
2019-04-25T23:23:51.996Z,5.23
2019-04-25T23:26:44.279Z,5.60
2019-04-25T23:29:14.731Z,5.50
2019-04-25T23:31:43.835Z,5.47
2019-04-25T23:34:13.238Z,5.30
2019-04-25T23:36:42.401Z,5.73
2019-04-25T23:39:12.055Z,5.17
2019-04-25T23:41:42.147Z,5.93
2019-04-25T23:44:12.076Z,6.50
2019-04-25T23:46:41.386Z,5.33
2019-04-25T23:49:10.631Z,4.90
2019-04-25T23:51:39.771Z,5.43
2019-04-25T23:54:08.961Z,6.57
2019-04-25T23:56:38.163Z,5.70
2019-04-25T23:59:08.916Z,5.10
